Time;durP1;ratioP1;P1;durP2;ratioP2;P2;SDS_P1;SDS_P2;PMS_P1;PMS_P2;Temp;Humidity;BMP_temperature;BMP_pressure;BME280_temperature;BME280_humidity;BME280_pressure;Samples;Min_cycle;Max_cycle;Signal;HPM_P1;HPM_P2
2021/01/14 00:00:49;;;;;;;;;;;8.90;59.70;;;;;;5104676;28;19899;-68
2021/01/14 00:03:14;;;;;;;;;;;8.90;59.70;;;;;;5104625;28;19903;-67
2021/01/14 00:05:40;;;;;;;;;;;9.00;59.50;;;;;;5104602;28;19900;-68
2021/01/14 00:08:06;;;;;;;;;;;9.00;59.40;;;;;;5104585;28;19922;-68
2021/01/14 00:10:32;;;;;;;;;;;9.00;59.50;;;;;;5104483;28;19907;-68
2021/01/14 00:12:57;;;;;;;;;;;9.00;59.50;;;;;;5104484;28;19915;-66
2021/01/14 00:15:23;;;;;;;;;;;8.90;59.60;;;;;;5104435;28;19908;-68
2021/01/14 00:17:48;;;;;;;;;;;8.90;59.80;;;;;;5104366;28;20006;-67
2021/01/14 00:20:16;;;;;;;;;;;8.90;59.80;;;;;;5104191;28;19900;-68
2021/01/14 00:22:42;;;;;;;;;;;8.90;59.70;;;;;;5104338;28;19900;-67
2021/01/14 00:25:08;;;;;;;;;;;8.90;59.60;;;;;;5104284;28;20444;-68
2021/01/14 00:27:34;;;;;;;;;;;8.80;59.80;;;;;;5104202;28;19938;-69
2021/01/14 00:30:00;;;;;;;;;;;8.90;59.80;;;;;;5104142;28;19900;-68
2021/01/14 00:32:26;;;;;;;;;;;8.90;59.80;;;;;;5104080;28;19971;-68
2021/01/14 00:34:52;;;;;;;;;;;8.90;59.40;;;;;;5104011;28;20241;-66
2021/01/14 00:40:03;;;;;;;;;;;8.90;58.90;;;;;;5104004;28;20241;-66
2021/01/14 00:42:28;;;;;;;;;;;8.80;59.10;;;;;;5103921;28;19908;-66
2021/01/14 00:44:54;;;;;;;;;;;8.80;59.00;;;;;;5103829;28;19907;-67
2021/01/14 00:47:19;;;;;;;;;;;8.80;59.10;;;;;;5103836;28;19900;-68
2021/01/14 00:49:45;;;;;;;;;;;8.80;59.10;;;;;;5102976;28;19900;-69
2021/01/14 00:52:11;;;;;;;;;;;8.80;59.00;;;;;;5103730;28;19931;-66
2021/01/14 00:54:39;;;;;;;;;;;8.80;59.20;;;;;;5103727;28;20334;-66
2021/01/14 00:57:08;;;;;;;;;;;8.80;59.10;;;;;;5103658;28;19935;-68
2021/01/14 00:59:35;;;;;;;;;;;8.80;59.20;;;;;;5103522;28;19946;-69
2021/01/14 01:02:01;;;;;;;;;;;8.90;59.10;;;;;;5103536;28;19944;-65
2021/01/14 01:04:26;;;;;;;;;;;8.90;59.40;;;;;;5103500;28;19900;-67
2021/01/14 01:06:52;;;;;;;;;;;8.90;59.70;;;;;;5103462;28;20196;-68
2021/01/14 01:09:20;;;;;;;;;;;8.90;59.10;;;;;;5103443;28;20241;-66
2021/01/14 01:11:46;;;;;;;;;;;8.80;59.20;;;;;;5103387;28;19900;-68
2021/01/14 01:14:11;;;;;;;;;;;8.80;59.10;;;;;;5103275;28;20073;-66
2021/01/14 01:16:37;;;;;;;;;;;8.80;59.00;;;;;;5103337;28;19946;-67
2021/01/14 01:19:03;;;;;;;;;;;8.80;59.10;;;;;;5101916;28;19919;-68
2021/01/14 01:21:28;;;;;;;;;;;8.80;59.00;;;;;;5103054;28;19920;-65
2021/01/14 01:23:54;;;;;;;;;;;8.80;59.00;;;;;;5103150;28;19900;-67
2021/01/14 01:26:20;;;;;;;;;;;8.90;59.60;;;;;;5103151;28;19900;-67
2021/01/14 01:28:46;;;;;;;;;;;8.90;58.70;;;;;;5103054;28;20001;-69
2021/01/14 01:31:12;;;;;;;;;;;8.80;59.00;;;;;;5103045;28;19942;-67
2021/01/14 01:33:41;;;;;;;;;;;8.80;59.00;;;;;;5103033;28;19939;-68
2021/01/14 01:36:07;;;;;;;;;;;8.90;59.60;;;;;;5103038;28;19915;-67
2021/01/14 01:38:33;;;;;;;;;;;8.90;59.40;;;;;;5102812;28;19978;-65
2021/01/14 01:41:01;;;;;;;;;;;8.90;59.10;;;;;;5102939;28;19907;-66
2021/01/14 01:43:28;;;;;;;;;;;8.90;58.50;;;;;;5102944;28;19930;-67
2021/01/14 01:45:53;;;;;;;;;;;8.90;58.50;;;;;;5102882;28;20108;-67
2021/01/14 01:48:20;;;;;;;;;;;8.80;58.80;;;;;;5102786;28;19967;-67
2021/01/14 01:50:45;;;;;;;;;;;8.80;59.00;;;;;;5102779;28;19945;-67
2021/01/14 01:53:15;;;;;;;;;;;8.80;59.00;;;;;;5102708;28;20215;-64
2021/01/14 01:55:44;;;;;;;;;;;8.80;59.10;;;;;;5102766;28;19900;-66
2021/01/14 01:58:10;;;;;;;;;;;8.80;59.20;;;;;;5102674;28;19904;-68
2021/01/14 02:00:35;;;;;;;;;;;8.90;58.80;;;;;;5102580;28;19900;-68
2021/01/14 02:03:01;;;;;;;;;;;8.80;58.90;;;;;;5102608;28;19922;-67
2021/01/14 02:05:27;;;;;;;;;;;8.80;59.00;;;;;;5102636;28;19915;-68
2021/01/14 02:07:58;;;;;;;;;;;8.80;58.90;;;;;;5102588;28;19973;-67
2021/01/14 02:10:34;;;;;;;;;;;8.80;59.00;;;;;;5102560;28;19915;-68
2021/01/14 02:13:19;;;;;;;;;;;8.80;59.00;;;;;;5101311;28;20092;-67
2021/01/14 02:15:47;;;;;;;;;;;8.80;59.00;;;;;;5102197;28;19975;-68
2021/01/14 02:18:17;;;;;;;;;;;8.80;59.00;;;;;;5102391;28;19951;-66
2021/01/14 02:20:43;;;;;;;;;;;8.80;59.10;;;;;;5102293;28;19916;-66
2021/01/14 02:23:41;;;;;;;;;;;8.80;59.00;;;;;;5102472;28;20092;-67
2021/01/14 02:26:17;;;;;;;;;;;8.70;59.20;;;;;;5090135;28;20253;-66
2021/01/14 02:28:44;;;;;;;;;;;8.70;59.30;;;;;;5102366;28;19908;-66
2021/01/14 02:31:10;;;;;;;;;;;8.90;59.40;;;;;;5102384;28;19900;-67
2021/01/14 02:33:35;;;;;;;;;;;8.80;59.00;;;;;;5102351;28;19900;-67
2021/01/14 02:36:03;;;;;;;;;;;8.80;59.00;;;;;;5102317;28;20184;-65
2021/01/14 02:38:28;;;;;;;;;;;8.80;59.50;;;;;;5102264;28;19912;-67
2021/01/14 02:40:54;;;;;;;;;;;8.90;59.60;;;;;;5102311;28;20044;-68
2021/01/14 02:43:19;;;;;;;;;;;8.90;59.60;;;;;;5102296;28;19900;-67
2021/01/14 02:45:45;;;;;;;;;;;8.90;58.90;;;;;;5102194;28;20207;-68
2021/01/14 02:48:12;;;;;;;;;;;8.80;59.00;;;;;;5102228;28;19900;-65
2021/01/14 02:50:39;;;;;;;;;;;8.80;59.00;;;;;;5102236;28;19915;-68
2021/01/14 02:53:05;;;;;;;;;;;8.80;59.80;;;;;;5102115;28;19974;-67
2021/01/14 02:55:30;;;;;;;;;;;8.80;59.00;;;;;;5102157;28;19900;-67
2021/01/14 02:57:56;;;;;;;;;;;8.80;59.10;;;;;;5100868;28;19904;-66
2021/01/14 03:00:22;;;;;;;;;;;8.80;59.10;;;;;;5102077;28;19961;-65
2021/01/14 03:02:48;;;;;;;;;;;8.80;59.20;;;;;;5102098;28;19912;-66
2021/01/14 03:05:13;;;;;;;;;;;8.80;59.70;;;;;;5102028;28;19900;-67
2021/01/14 03:07:39;;;;;;;;;;;8.90;59.60;;;;;;5102430;28;19963;-68
2021/01/14 03:10:05;;;;;;;;;;;8.80;59.60;;;;;;5101995;28;19912;-66
2021/01/14 03:12:30;;;;;;;;;;;8.80;59.50;;;;;;5103225;28;19967;-66
2021/01/14 03:14:56;;;;;;;;;;;8.80;59.70;;;;;;5105642;28;19927;-67
2021/01/14 03:17:22;;;;;;;;;;;8.80;59.60;;;;;;5105593;28;19922;-67
2021/01/14 03:19:47;;;;;;;;;;;8.90;59.00;;;;;;5105460;28;19983;-67
2021/01/14 03:22:13;;;;;;;;;;;8.90;58.80;;;;;;5105319;28;19920;-67
2021/01/14 03:24:39;;;;;;;;;;;8.80;58.90;;;;;;5105461;28;19900;-66
2021/01/14 03:27:06;;;;;;;;;;;8.80;59.00;;;;;;5105372;28;19910;-67
2021/01/14 03:29:31;;;;;;;;;;;8.80;59.10;;;;;;5105343;28;20112;-68
2021/01/14 03:32:01;;;;;;;;;;;8.80;59.00;;;;;;5105314;28;19908;-65
2021/01/14 03:34:26;;;;;;;;;;;8.80;59.10;;;;;;5105282;28;19907;-65
2021/01/14 03:37:01;;;;;;;;;;;8.80;59.20;;;;;;5105205;28;19943;-66
2021/01/14 03:39:27;;;;;;;;;;;8.70;59.20;;;;;;5105154;28;19904;-66
2021/01/14 03:41:53;;;;;;;;;;;8.80;59.20;;;;;;5103959;28;20124;-66
2021/01/14 03:44:19;;;;;;;;;;;8.80;59.30;;;;;;5105038;28;19934;-67
2021/01/14 03:46:45;;;;;;;;;;;8.80;59.20;;;;;;5104986;28;19946;-67
2021/01/14 03:49:11;;;;;;;;;;;8.80;59.30;;;;;;5104963;28;20188;-64
2021/01/14 03:51:37;;;;;;;;;;;8.70;59.30;;;;;;5104925;28;19949;-64
2021/01/14 03:54:02;;;;;;;;;;;8.70;59.40;;;;;;5104848;28;20215;-66
2021/01/14 03:56:28;;;;;;;;;;;8.70;59.30;;;;;;5104879;28;19908;-67
2021/01/14 03:58:53;;;;;;;;;;;8.80;59.10;;;;;;5104739;28;19903;-67
2021/01/14 04:01:22;;;;;;;;;;;8.80;59.10;;;;;;5104754;28;19900;-66
2021/01/14 04:03:48;;;;;;;;;;;8.80;59.10;;;;;;5104713;28;20421;-68
2021/01/14 04:06:13;;;;;;;;;;;8.70;59.10;;;;;;5104638;28;19915;-65
2021/01/14 04:08:39;;;;;;;;;;;8.80;59.00;;;;;;5104606;28;20210;-67
2021/01/14 04:11:05;;;;;;;;;;;8.70;59.20;;;;;;5104523;28;19967;-66
2021/01/14 04:13:31;;;;;;;;;;;8.70;59.10;;;;;;5104514;28;19933;-64
2021/01/14 04:15:57;;;;;;;;;;;8.70;59.10;;;;;;5104440;28;19909;-66
2021/01/14 04:18:22;;;;;;;;;;;8.70;59.20;;;;;;5104345;28;20323;-67
2021/01/14 04:20:48;;;;;;;;;;;8.70;59.20;;;;;;5104177;28;20230;-65
2021/01/14 04:23:14;;;;;;;;;;;8.70;59.20;;;;;;5103735;28;19900;-68
2021/01/14 04:25:39;;;;;;;;;;;8.70;59.20;;;;;;5103699;28;19907;-67
2021/01/14 04:28:08;;;;;;;;;;;8.70;59.30;;;;;;5104237;28;19900;-66
2021/01/14 04:30:34;;;;;;;;;;;8.70;59.40;;;;;;5102923;28;19915;-67
2021/01/14 04:33:12;;;;;;;;;;;8.70;59.30;;;;;;5104164;28;20190;-67
2021/01/14 04:35:47;;;;;;;;;;;8.70;59.20;;;;;;5104103;28;19900;-67
2021/01/14 04:38:13;;;;;;;;;;;8.70;59.20;;;;;;5103930;28;19911;-66
2021/01/14 04:40:39;;;;;;;;;;;8.70;59.10;;;;;;5103967;28;19900;-65
2021/01/14 04:43:05;;;;;;;;;;;8.70;59.00;;;;;;5103924;28;20108;-65
2021/01/14 04:45:31;;;;;;;;;;;8.70;59.10;;;;;;5103883;28;19971;-65
2021/01/14 04:47:57;;;;;;;;;;;8.70;59.10;;;;;;5103842;28;20147;-65
2021/01/14 04:50:26;;;;;;;;;;;8.70;59.30;;;;;;5103773;28;19979;-64
2021/01/14 04:52:54;;;;;;;;;;;8.70;59.30;;;;;;5103718;28;19900;-66
2021/01/14 04:55:21;;;;;;;;;;;8.70;59.30;;;;;;5103729;28;19942;-67
2021/01/14 04:57:49;;;;;;;;;;;8.70;59.40;;;;;;5103573;28;19906;-67
2021/01/14 05:00:16;;;;;;;;;;;8.70;59.30;;;;;;5103601;28;20188;-67
2021/01/14 05:02:58;;;;;;;;;;;8.70;59.20;;;;;;5103566;28;19915;-67
2021/01/14 05:05:25;;;;;;;;;;;8.70;59.30;;;;;;5103519;28;19935;-67
2021/01/14 05:07:57;;;;;;;;;;;8.70;59.30;;;;;;5103511;28;19935;-65
2021/01/14 05:10:23;;;;;;;;;;;8.70;59.30;;;;;;5103351;28;19908;-65
2021/01/14 05:12:49;;;;;;;;;;;8.70;59.10;;;;;;5103407;28;19908;-67
2021/01/14 05:15:15;;;;;;;;;;;8.70;59.10;;;;;;5103297;28;19943;-66
2021/01/14 05:17:40;;;;;;;;;;;8.70;59.10;;;;;;5103228;28;19907;-66
2021/01/14 05:20:06;;;;;;;;;;;8.70;59.20;;;;;;5103278;28;19900;-66
2021/01/14 05:22:32;;;;;;;;;;;8.70;59.30;;;;;;5103176;28;19954;-67
2021/01/14 05:25:08;;;;;;;;;;;8.70;59.40;;;;;;5103209;28;19908;-65
2021/01/14 05:27:36;;;;;;;;;;;8.70;59.50;;;;;;5103160;28;19979;-67
2021/01/14 05:30:03;;;;;;;;;;;8.70;59.50;;;;;;5103081;28;19907;-68
2021/01/14 05:32:32;;;;;;;;;;;8.70;59.40;;;;;;5103031;28;19979;-66
2021/01/14 05:34:58;;;;;;;;;;;8.70;59.40;;;;;;5102699;28;19908;-65
2021/01/14 05:37:24;;;;;;;;;;;8.70;59.30;;;;;;5102964;28;19907;-66
2021/01/14 05:39:49;;;;;;;;;;;8.70;59.40;;;;;;5102866;28;20100;-65
2021/01/14 05:42:16;;;;;;;;;;;8.70;59.30;;;;;;5102906;28;20152;-67
2021/01/14 05:44:42;;;;;;;;;;;8.70;59.30;;;;;;5102862;28;19908;-64
2021/01/14 05:47:20;;;;;;;;;;;8.70;59.30;;;;;;5102818;28;20211;-66
2021/01/14 05:49:55;;;;;;;;;;;8.70;59.40;;;;;;5102771;28;19907;-67
2021/01/14 05:52:22;;;;;;;;;;;8.60;59.40;;;;;;5102825;28;19900;-66
2021/01/14 05:54:53;;;;;;;;;;;8.60;59.50;;;;;;5102760;28;19922;-66
2021/01/14 05:57:19;;;;;;;;;;;8.70;59.50;;;;;;5102787;28;20213;-65
2021/01/14 05:59:52;;;;;;;;;;;8.60;59.40;;;;;;5102626;28;20058;-65
2021/01/14 06:02:26;;;;;;;;;;;8.70;59.60;;;;;;5102733;28;19958;-66
2021/01/14 06:04:51;;;;;;;;;;;8.70;59.60;;;;;;5102692;28;19958;-67
2021/01/14 06:07:17;;;;;;;;;;;8.60;59.50;;;;;;5102637;28;20112;-66
2021/01/14 06:09:45;;;;;;;;;;;8.70;59.40;;;;;;5102593;28;19955;-68
2021/01/14 06:12:11;;;;;;;;;;;8.70;59.50;;;;;;5102623;28;19937;-66
2021/01/14 06:14:37;;;;;;;;;;;8.70;59.40;;;;;;5102602;28;19911;-67
2021/01/14 06:17:03;;;;;;;;;;;8.60;59.50;;;;;;5102507;28;20192;-68
2021/01/14 06:19:29;;;;;;;;;;;8.60;59.50;;;;;;5102454;28;19970;-65
2021/01/14 06:21:55;;;;;;;;;;;8.60;59.50;;;;;;5102351;28;20096;-66
2021/01/14 06:24:25;;;;;;;;;;;8.60;59.40;;;;;;5102430;28;19943;-64
2021/01/14 06:26:51;;;;;;;;;;;8.60;59.50;;;;;;5102445;28;19900;-65
2021/01/14 06:29:18;;;;;;;;;;;8.60;59.40;;;;;;5102459;28;19908;-66
2021/01/14 06:31:44;;;;;;;;;;;8.60;59.40;;;;;;5102444;28;19950;-68
2021/01/14 06:34:10;;;;;;;;;;;8.60;59.40;;;;;;5102378;28;19967;-68
2021/01/14 06:36:39;;;;;;;;;;;8.70;59.30;;;;;;5102350;28;19908;-66
2021/01/14 06:39:12;;;;;;;;;;;8.60;59.30;;;;;;5102242;28;19976;-66
2021/01/14 06:41:39;;;;;;;;;;;8.60;59.40;;;;;;5102322;28;19900;-67
2021/01/14 06:44:08;;;;;;;;;;;8.70;59.30;;;;;;5102263;28;20200;-68
2021/01/14 06:46:35;;;;;;;;;;;8.60;59.30;;;;;;5102242;28;19908;-66
2021/01/14 06:49:03;;;;;;;;;;;8.60;59.40;;;;;;5105984;28;19928;-67
2021/01/14 06:51:31;;;;;;;;;;;8.60;59.40;;;;;;5106158;28;19979;-66
2021/01/14 06:54:01;;;;;;;;;;;8.60;59.40;;;;;;5106123;28;19907;-66
2021/01/14 06:56:30;;;;;;;;;;;8.60;59.40;;;;;;5106056;28;19915;-65
2021/01/14 06:58:57;;;;;;;;;;;8.60;59.40;;;;;;5105884;28;19941;-67
2021/01/14 07:01:23;;;;;;;;;;;8.60;59.40;;;;;;5106206;28;20131;-66
2021/01/14 07:03:56;;;;;;;;;;;8.60;59.30;;;;;;5105922;28;19944;-67
2021/01/14 07:06:25;;;;;;;;;;;8.60;59.30;;;;;;5105828;28;19923;-66
2021/01/14 07:09:06;;;;;;;;;;;8.60;59.40;;;;;;5105878;28;19900;-66
2021/01/14 07:11:32;;;;;;;;;;;8.60;59.30;;;;;;5105738;28;20155;-67
2021/01/14 07:14:03;;;;;;;;;;;8.60;59.30;;;;;;5105675;28;19908;-65
2021/01/14 07:16:29;;;;;;;;;;;8.60;59.20;;;;;;5105677;28;19940;-66
2021/01/14 07:18:56;;;;;;;;;;;8.70;59.20;;;;;;5105516;28;19911;-68
2021/01/14 07:21:37;;;;;;;;;;;8.70;59.20;;;;;;5105245;28;19942;-68
2021/01/14 07:24:03;;;;;;;;;;;8.70;59.80;;;;;;5105467;28;20219;-67
2021/01/14 07:26:29;;;;;;;;;;;8.60;59.20;;;;;;5105676;28;19916;-67
2021/01/14 07:28:55;;;;;;;;;;;8.60;59.40;;;;;;5105309;28;19907;-68
2021/01/14 07:31:27;;;;;;;;;;;8.60;59.30;;;;;;5105346;28;19900;-64
2021/01/14 07:33:53;;;;;;;;;;;8.60;59.30;;;;;;5105513;28;19908;-65
2021/01/14 07:36:19;;;;;;;;;;;8.60;59.30;;;;;;5105296;28;20204;-67
2021/01/14 07:38:49;;;;;;;;;;;8.70;59.30;;;;;;5105119;28;19904;-65
2021/01/14 07:41:15;;;;;;;;;;;8.60;59.00;;;;;;5105138;28;19900;-68
2021/01/14 07:43:41;;;;;;;;;;;8.70;59.00;;;;;;5105206;28;19982;-67
2021/01/14 07:46:17;;;;;;;;;;;8.70;59.00;;;;;;5105177;28;19931;-66
2021/01/14 07:48:43;;;;;;;;;;;8.70;59.00;;;;;;5105050;28;19908;-67
2021/01/14 07:51:09;;;;;;;;;;;8.60;58.90;;;;;;5105023;28;19916;-65
2021/01/14 07:53:35;;;;;;;;;;;8.70;59.00;;;;;;5104931;28;19904;-67
2021/01/14 07:56:19;;;;;;;;;;;8.70;59.00;;;;;;5104956;28;19900;-64
2021/01/14 07:58:45;;;;;;;;;;;8.70;58.90;;;;;;5104512;28;19910;-65
2021/01/14 08:01:11;;;;;;;;;;;8.80;58.80;;;;;;5104834;28;19900;-64
2021/01/14 08:03:37;;;;;;;;;;;8.80;58.60;;;;;;5104798;28;19900;-67
2021/01/14 08:06:16;;;;;;;;;;;9.00;58.90;;;;;;5104710;28;20135;-66
2021/01/14 08:08:53;;;;;;;;;;;9.00;58.70;;;;;;5104642;28;19907;-67
2021/01/14 08:11:25;;;;;;;;;;;9.10;58.50;;;;;;5104698;28;20103;-67
2021/01/14 08:14:10;;;;;;;;;;;9.20;58.30;;;;;;5104675;28;19900;-64
2021/01/14 08:16:43;;;;;;;;;;;9.20;58.20;;;;;;5104538;28;19962;-65
2021/01/14 08:19:09;;;;;;;;;;;9.20;58.10;;;;;;5104427;28;19912;-67
2021/01/14 08:21:35;;;;;;;;;;;9.20;58.10;;;;;;5104194;28;19919;-67
2021/01/14 08:24:00;;;;;;;;;;;9.20;58.20;;;;;;5104392;28;20192;-68
2021/01/14 08:26:26;;;;;;;;;;;9.20;58.20;;;;;;5104338;28;19907;-66
2021/01/14 08:28:59;;;;;;;;;;;9.10;58.30;;;;;;5104290;28;19908;-66
2021/01/14 08:31:37;;;;;;;;;;;9.10;58.40;;;;;;5104243;28;19900;-66
2021/01/14 08:34:05;;;;;;;;;;;9.10;58.40;;;;;;5104145;28;19965;-64
2021/01/14 08:36:39;;;;;;;;;;;9.10;58.30;;;;;;5104154;28;20096;-64
2021/01/14 08:39:05;;;;;;;;;;;9.20;58.20;;;;;;5104002;28;19915;-67
2021/01/14 08:41:34;;;;;;;;;;;9.20;58.00;;;;;;5104050;28;19975;-67
2021/01/14 08:44:03;;;;;;;;;;;9.20;58.00;;;;;;5104055;28;19907;-68
2021/01/14 08:46:41;;;;;;;;;;;9.20;58.10;;;;;;5103957;28;19922;-65
2021/01/14 08:49:14;;;;;;;;;;;9.20;58.10;;;;;;5103919;28;19942;-66
2021/01/14 08:51:40;;;;;;;;;;;9.20;58.20;;;;;;5103863;28;19900;-67
2021/01/14 08:54:06;;;;;;;;;;;9.20;57.80;;;;;;5103797;28;19904;-67
2021/01/14 08:56:32;;;;;;;;;;;9.40;57.80;;;;;;5103748;28;20428;-66
2021/01/14 08:59:23;;;;;;;;;;;9.30;57.90;;;;;;5103323;28;19936;-66
2021/01/14 09:01:55;;;;;;;;;;;9.30;57.80;;;;;;5102472;28;20202;-67
2021/01/14 09:04:25;;;;;;;;;;;9.40;57.60;;;;;;5103652;28;19907;-66
2021/01/14 09:06:50;;;;;;;;;;;9.30;57.80;;;;;;5103587;28;19900;-66
2021/01/14 09:09:17;;;;;;;;;;;9.30;57.80;;;;;;5103380;28;19938;-67
2021/01/14 09:11:43;;;;;;;;;;;9.40;57.90;;;;;;5102989;28;19930;-65
2021/01/14 09:14:12;;;;;;;;;;;9.40;57.80;;;;;;5103430;28;19908;-66
2021/01/14 09:16:39;;;;;;;;;;;9.30;57.80;;;;;;5103394;28;19912;-66
2021/01/14 09:19:20;;;;;;;;;;;9.40;57.80;;;;;;5103209;28;19908;-64
2021/01/14 09:21:46;;;;;;;;;;;9.40;57.80;;;;;;5103136;28;19950;-68
2021/01/14 09:24:16;;;;;;;;;;;9.40;58.50;;;;;;5103258;28;20213;-65
2021/01/14 09:26:42;;;;;;;;;;;9.30;57.90;;;;;;5103200;28;20184;-63
2021/01/14 09:29:08;;;;;;;;;;;9.40;58.00;;;;;;5103204;28;19929;-67
2021/01/14 09:31:34;;;;;;;;;;;9.40;57.80;;;;;;5103095;28;20188;-66
2021/01/14 09:34:01;;;;;;;;;;;9.50;57.70;;;;;;5103129;28;19907;-68
2021/01/14 09:36:26;;;;;;;;;;;9.50;57.40;;;;;;5103084;28;19900;-66
2021/01/14 09:38:52;;;;;;;;;;;9.50;57.60;;;;;;5102938;28;20233;-65
2021/01/14 09:41:23;;;;;;;;;;;9.40;57.80;;;;;;5103002;28;19908;-67
2021/01/14 09:43:50;;;;;;;;;;;9.40;57.90;;;;;;5102970;28;19908;-67
2021/01/14 09:46:15;;;;;;;;;;;9.40;57.80;;;;;;5102950;28;19900;-68
2021/01/14 09:48:42;;;;;;;;;;;9.40;57.90;;;;;;5102900;28;19908;-64
2021/01/14 09:51:08;;;;;;;;;;;9.30;58.10;;;;;;5103165;28;19965;-66
2021/01/14 09:53:34;;;;;;;;;;;9.30;58.40;;;;;;5102848;28;19908;-67
2021/01/14 09:56:02;;;;;;;;;;;9.20;58.50;;;;;;5102830;28;19927;-66
2021/01/14 09:58:28;;;;;;;;;;;9.30;58.40;;;;;;5102738;28;20199;-67
2021/01/14 10:00:55;;;;;;;;;;;9.40;58.20;;;;;;5102735;28;19915;-66
2021/01/14 10:03:21;;;;;;;;;;;9.40;57.70;;;;;;5103000;28;19907;-65
2021/01/14 10:05:48;;;;;;;;;;;9.40;57.80;;;;;;5103039;28;19949;-66
2021/01/14 10:08:16;;;;;;;;;;;9.50;58.40;;;;;;5102623;28;19900;-67
2021/01/14 10:10:42;;;;;;;;;;;9.50;57.60;;;;;;5102623;28;19900;-66
2021/01/14 10:13:12;;;;;;;;;;;9.50;57.50;;;;;;5102592;28;19958;-67
2021/01/14 10:15:37;;;;;;;;;;;9.50;58.50;;;;;;5102579;28;19936;-66
2021/01/14 10:18:03;;;;;;;;;;;9.40;58.10;;;;;;5102454;28;20219;-66
2021/01/14 10:20:31;;;;;;;;;;;9.50;58.10;;;;;;5102363;28;19920;-66
2021/01/14 10:22:56;;;;;;;;;;;9.40;58.10;;;;;;5106422;28;19903;-66
2021/01/14 10:25:22;;;;;;;;;;;9.40;58.20;;;;;;5106634;28;19908;-66
2021/01/14 10:28:01;;;;;;;;;;;9.50;58.00;;;;;;5106654;28;19931;-65
2021/01/14 10:30:27;;;;;;;;;;;9.40;58.20;;;;;;5106625;28;19900;-66
2021/01/14 10:33:03;;;;;;;;;;;9.40;58.20;;;;;;5106508;28;19908;-67
2021/01/14 10:35:29;;;;;;;;;;;9.40;58.10;;;;;;5106456;28;20134;-66
2021/01/14 10:38:11;;;;;;;;;;;9.40;58.10;;;;;;5106353;28;19940;-68
2021/01/14 10:40:36;;;;;;;;;;;9.50;57.60;;;;;;5106420;28;19922;-65
2021/01/14 10:43:02;;;;;;;;;;;9.50;57.70;;;;;;5106569;28;19942;-64
2021/01/14 10:45:29;;;;;;;;;;;9.60;58.20;;;;;;5106356;28;19945;-65
2021/01/14 10:48:08;;;;;;;;;;;9.60;57.20;;;;;;5106205;28;19941;-67
2021/01/14 10:50:40;;;;;;;;;;;9.60;57.40;;;;;;5106179;28;19908;-65
2021/01/14 10:53:06;;;;;;;;;;;9.60;57.60;;;;;;5106125;28;20142;-68
2021/01/14 10:55:32;;;;;;;;;;;9.60;57.70;;;;;;5104831;28;19900;-64
2021/01/14 10:57:58;;;;;;;;;;;9.70;57.30;;;;;;5105996;28;19950;-65
2021/01/14 11:00:24;;;;;;;;;;;9.80;57.20;;;;;;5106259;28;19915;-66
2021/01/14 11:03:10;;;;;;;;;;;9.80;57.30;;;;;;5106196;28;20092;-66
2021/01/14 11:05:42;;;;;;;;;;;9.80;57.20;;;;;;5105615;28;19907;-68
2021/01/14 11:08:09;;;;;;;;;;;9.70;57.30;;;;;;5105817;28;19954;-68
2021/01/14 11:10:34;;;;;;;;;;;9.60;57.60;;;;;;5105766;28;20180;-66
2021/01/14 11:13:01;;;;;;;;;;;9.60;57.90;;;;;;5105785;28;19915;-68
2021/01/14 11:15:26;;;;;;;;;;;9.50;58.10;;;;;;5105735;28;20130;-66
2021/01/14 11:17:52;;;;;;;;;;;9.50;58.20;;;;;;5105623;28;20200;-69
2021/01/14 11:20:17;;;;;;;;;;;9.40;58.40;;;;;;5105427;28;19908;-66
2021/01/14 11:22:43;;;;;;;;;;;9.40;58.30;;;;;;5105545;28;19977;-69
2021/01/14 11:25:09;;;;;;;;;;;9.40;58.40;;;;;;5105555;28;19940;-66
2021/01/14 11:27:34;;;;;;;;;;;9.40;58.50;;;;;;5105455;28;20096;-66
2021/01/14 11:30:00;;;;;;;;;;;9.40;58.50;;;;;;5105488;28;19904;-69
2021/01/14 11:32:25;;;;;;;;;;;9.50;58.30;;;;;;5105414;28;19900;-69
2021/01/14 11:34:55;;;;;;;;;;;9.50;58.20;;;;;;5105206;28;19907;-65
2021/01/14 11:37:20;;;;;;;;;;;9.50;57.90;;;;;;5105320;28;19900;-66
2021/01/14 11:39:46;;;;;;;;;;;9.60;57.70;;;;;;5105190;28;20269;-67
2021/01/14 11:42:11;;;;;;;;;;;9.60;57.60;;;;;;5105175;28;20020;-65
2021/01/14 11:44:37;;;;;;;;;;;9.60;58.00;;;;;;5105490;28;19907;-68
2021/01/14 11:47:03;;;;;;;;;;;9.50;58.00;;;;;;5105094;28;19900;-66
2021/01/14 11:49:28;;;;;;;;;;;9.60;57.50;;;;;;5105102;28;19908;-66
2021/01/14 11:51:54;;;;;;;;;;;9.70;57.40;;;;;;5105216;28;19906;-68
2021/01/14 11:54:20;;;;;;;;;;;9.70;57.40;;;;;;5105035;28;20211;-67
2021/01/14 11:56:45;;;;;;;;;;;9.80;57.30;;;;;;5104877;28;19900;-67
2021/01/14 11:59:11;;;;;;;;;;;9.80;57.30;;;;;;5104787;28;19904;-65
2021/01/14 12:01:36;;;;;;;;;;;9.70;57.50;;;;;;5104831;28;19941;-67
2021/01/14 12:04:02;;;;;;;;;;;9.80;57.30;;;;;;5104763;28;20251;-66
2021/01/14 12:06:27;;;;;;;;;;;9.90;56.80;;;;;;5104720;28;19939;-67
2021/01/14 12:08:53;;;;;;;;;;;10.00;56.70;;;;;;5104641;28;19908;-68
2021/01/14 12:11:19;;;;;;;;;;;10.00;57.10;;;;;;5104621;28;19908;-66
2021/01/14 12:13:45;;;;;;;;;;;10.00;57.20;;;;;;5104555;28;19907;-68
2021/01/14 12:16:10;;;;;;;;;;;10.00;56.70;;;;;;5104553;28;19900;-66
2021/01/14 12:18:36;;;;;;;;;;;10.00;56.70;;;;;;5104395;28;19911;-67
2021/01/14 12:21:02;;;;;;;;;;;10.00;56.90;;;;;;5104275;28;19920;-66
2021/01/14 12:23:27;;;;;;;;;;;9.90;57.00;;;;;;5104391;28;19935;-66
2021/01/14 12:25:53;;;;;;;;;;;9.80;57.30;;;;;;5104305;28;19908;-67
2021/01/14 12:28:19;;;;;;;;;;;9.80;57.50;;;;;;5104294;28;19907;-67
2021/01/14 12:30:44;;;;;;;;;;;9.70;57.80;;;;;;5104196;28;19904;-67
2021/01/14 12:33:10;;;;;;;;;;;9.70;57.90;;;;;;5104194;28;19900;-68
2021/01/14 12:35:36;;;;;;;;;;;9.70;57.90;;;;;;5104086;28;19959;-67
2021/01/14 12:38:02;;;;;;;;;;;9.70;58.00;;;;;;5103955;28;19927;-65
2021/01/14 12:40:29;;;;;;;;;;;9.70;58.00;;;;;;5104071;28;19930;-69
2021/01/14 12:42:55;;;;;;;;;;;9.70;57.90;;;;;;5102740;28;19975;-67
2021/01/14 12:45:20;;;;;;;;;;;9.70;57.90;;;;;;5102972;28;19907;-66
2021/01/14 12:47:46;;;;;;;;;;;9.70;57.30;;;;;;5103926;28;19900;-67
2021/01/14 12:50:11;;;;;;;;;;;9.80;57.30;;;;;;5103827;28;20238;-65
2021/01/14 12:52:37;;;;;;;;;;;9.80;57.70;;;;;;5103849;28;19953;-67
2021/01/14 12:55:03;;;;;;;;;;;9.80;57.70;;;;;;5103754;28;19942;-68
2021/01/14 12:57:28;;;;;;;;;;;9.70;57.80;;;;;;5103702;28;19954;-65
2021/01/14 12:59:54;;;;;;;;;;;9.70;57.80;;;;;;5103541;28;20197;-67
2021/01/14 13:02:20;;;;;;;;;;;9.70;57.70;;;;;;5103645;28;19900;-66
2021/01/14 13:04:45;;;;;;;;;;;9.80;57.60;;;;;;5103564;28;19900;-68
2021/01/14 13:07:11;;;;;;;;;;;9.80;57.50;;;;;;5103535;28;19949;-63
2021/01/14 13:09:36;;;;;;;;;;;9.80;57.40;;;;;;5103504;28;19931;-66
2021/01/14 13:12:02;;;;;;;;;;;9.90;57.30;;;;;;5103435;28;19908;-66
2021/01/14 13:14:28;;;;;;;;;;;10.00;56.90;;;;;;5103449;28;20155;-67
2021/01/14 13:16:56;;;;;;;;;;;10.00;56.90;;;;;;5103359;28;19940;-65
2021/01/14 13:19:22;;;;;;;;;;;10.20;56.40;;;;;;5103251;28;19911;-66
2021/01/14 13:21:48;;;;;;;;;;;10.30;56.00;;;;;;5103148;28;19920;-68
2021/01/14 13:24:15;;;;;;;;;;;10.20;56.30;;;;;;5102022;28;19920;-68
2021/01/14 13:26:41;;;;;;;;;;;10.00;56.80;;;;;;5103258;28;19900;-67
2021/01/14 13:29:07;;;;;;;;;;;9.90;57.10;;;;;;5103215;28;19938;-65
2021/01/14 13:31:41;;;;;;;;;;;9.90;57.40;;;;;;5103143;28;19961;-66
2021/01/14 13:34:07;;;;;;;;;;;9.80;57.50;;;;;;5103110;28;20219;-66
2021/01/14 13:36:33;;;;;;;;;;;9.90;57.60;;;;;;5103021;28;19908;-66
2021/01/14 13:38:58;;;;;;;;;;;9.90;57.50;;;;;;5102967;28;19982;-66
2021/01/14 13:41:24;;;;;;;;;;;10.00;57.40;;;;;;5102932;28;20207;-64
2021/01/14 13:43:50;;;;;;;;;;;10.00;57.30;;;;;;5102975;28;19900;-67
2021/01/14 13:46:16;;;;;;;;;;;10.10;57.20;;;;;;5102873;28;19906;-67
2021/01/14 13:48:41;;;;;;;;;;;10.10;57.00;;;;;;5102870;28;19935;-64
2021/01/14 13:51:07;;;;;;;;;;;10.10;57.00;;;;;;5102801;28;19949;-68
2021/01/14 13:53:35;;;;;;;;;;;10.00;57.20;;;;;;5102816;28;20192;-65
2021/01/14 13:56:03;;;;;;;;;;;10.00;57.40;;;;;;5102455;28;19911;-64
2021/01/14 13:58:31;;;;;;;;;;;9.90;57.50;;;;;;5102670;28;19912;-67
2021/01/14 14:00:57;;;;;;;;;;;9.90;57.70;;;;;;5102699;28;19915;-67
2021/01/14 14:03:23;;;;;;;;;;;9.90;57.70;;;;;;5102636;28;20134;-66
2021/01/14 14:05:48;;;;;;;;;;;10.00;57.60;;;;;;5102659;28;19908;-65
2021/01/14 14:08:14;;;;;;;;;;;10.10;57.40;;;;;;5102657;28;19936;-67
2021/01/14 14:10:42;;;;;;;;;;;10.10;57.30;;;;;;5102602;28;19900;-67
2021/01/14 14:13:07;;;;;;;;;;;10.10;57.30;;;;;;5102608;28;19907;-66
2021/01/14 14:15:33;;;;;;;;;;;10.00;57.20;;;;;;5102519;28;19970;-66
2021/01/14 14:17:59;;;;;;;;;;;10.10;57.50;;;;;;5101301;28;19912;-65
2021/01/14 14:20:24;;;;;;;;;;;10.00;57.40;;;;;;5102322;28;20005;-64
2021/01/14 14:22:50;;;;;;;;;;;10.00;57.50;;;;;;5102543;28;20006;-65
2021/01/14 14:25:15;;;;;;;;;;;10.10;57.50;;;;;;5102440;28;20156;-65
2021/01/14 14:27:41;;;;;;;;;;;10.00;57.50;;;;;;5102492;28;19900;-65
2021/01/14 14:30:07;;;;;;;;;;;10.10;57.70;;;;;;5102435;28;20145;-67
2021/01/14 14:32:33;;;;;;;;;;;10.10;57.30;;;;;;5102376;28;19911;-67